»·PEaware :: N473LK KBFL-KSAN

N473LK :: KBFL-KSAN

FLIGHT INFORMATION

Flight Status: Arrived
Operator: Privately registered:
United States
More flights under this callsign
Pilot: Liam K. (12562)
Aircraft: BOEING 737-700
(B737)
More flights by this aircraft type
Origin: KBFL Meadows
United States
Destination: KSAN San Diego Intl-Lindbergh
United States
More flights between these airports :: More routes between these airports
Route: +MARIC4 GMN LAX BAYVU5
File this flight plan on PilotEdge
Remarks:
Altitude:
(Current/Filed)
19,000ft
Speed:
(Current/Filed)
450kts
Departed: 27-Sep-17 08:01 AM
Arrived: 27-Sep-17 08:43 AM
Distance/Time
Traveled:
186nm/0:42
Distance/Time
To Go:
Arrived

Flight Plot

Page will automatically refresh every two minutes.

Flight plan parsing failed; only flown route is shown


Map Options




Map Legend


Flown Route
Filed Route
Departure Airport
Arrival Airport
Navaid (VOR, NDB)
Fix

Horizontal Profiles

Position Reports

Time Latitude Longitude Heading Altitude Ground
Speed
27-Sep-17 07:30 35.437661 -119.055186 139 506ft 0kts
27-Sep-17 07:31 35.437661 -119.055186 139 506ft 0kts
27-Sep-17 07:32 35.437661 -119.055186 139 506ft 0kts
27-Sep-17 07:33 35.437661 -119.055186 139 506ft 0kts
27-Sep-17 07:34 35.437661 -119.055186 139 506ft 0kts
27-Sep-17 07:35 35.437660 -119.055185 139 506ft 0kts
27-Sep-17 07:36 35.437660 -119.055185 139 506ft 0kts
27-Sep-17 07:37 35.437660 -119.055185 139 506ft 0kts
27-Sep-17 07:38 35.437660 -119.055185 139 506ft 0kts
27-Sep-17 07:39 35.437660 -119.055185 139 506ft 0kts
27-Sep-17 07:40 35.437660 -119.055185 139 506ft 0kts
27-Sep-17 07:41 35.437660 -119.055185 139 506ft 0kts
27-Sep-17 07:42 35.437660 -119.055185 139 506ft 0kts
27-Sep-17 07:43 35.437660 -119.055185 139 506ft 0kts
27-Sep-17 07:44 35.437660 -119.055185 139 506ft 0kts
27-Sep-17 07:45 35.437660 -119.055185 139 506ft 0kts
27-Sep-17 07:46 35.437660 -119.055185 139 506ft 0kts
27-Sep-17 07:47 35.437660 -119.055185 139 506ft 0kts
27-Sep-17 07:48 35.437660 -119.055185 139 506ft 0kts
27-Sep-17 07:49 35.437660 -119.055185 139 506ft 0kts
27-Sep-17 07:50 35.437660 -119.055185 139 506ft 0kts
27-Sep-17 07:51 35.437660 -119.055185 139 506ft 0kts
27-Sep-17 07:52 35.437660 -119.055185 139 506ft 0kts
27-Sep-17 07:53 35.437660 -119.055185 139 506ft 0kts
27-Sep-17 07:54 35.437660 -119.055185 139 506ft 0kts
27-Sep-17 07:55 35.437660 -119.055185 139 506ft 0kts
27-Sep-17 07:56 35.436895 -119.055135 194 505ft 13kts
27-Sep-17 07:57 35.435498 -119.055872 215 498ft 3kts
27-Sep-17 07:58 35.433378 -119.053346 136 498ft 30kts
27-Sep-17 07:59 35.426796 -119.045466 135 488ft 7kts
27-Sep-17 08:00 35.425727 -119.044779 222 485ft 0kts
27-Sep-17 08:01 35.425727 -119.044779 222 485ft 0kts
27-Sep-17 08:02 35.425727 -119.044779 222 485ft 0kts
27-Sep-17 08:03 35.425727 -119.044779 222 485ft 0kts
27-Sep-17 08:04 35.425428 -119.045882 289 481ft 0kts
27-Sep-17 08:05 35.431739 -119.053579 315 491ft 158kts
27-Sep-17 08:06 35.445651 -119.109189 252 1819ft 186kts
27-Sep-17 08:07 35.424142 -119.164673 194 3176ft 188kts
27-Sep-17 08:08 35.362298 -119.173564 192 5129ft 270kts
27-Sep-17 08:09 35.294163 -119.212719 214 5923ft 277kts
27-Sep-17 08:10 35.228002 -119.234716 135 5959ft 276kts
27-Sep-17 08:11 35.178323 -119.164193 127 5983ft 274kts
27-Sep-17 08:12 35.132739 -119.090056 125 5972ft 273kts
27-Sep-17 08:13 35.088239 -119.014914 125 5976ft 273kts
27-Sep-17 08:14 35.037885 -118.948242 159 5997ft 270kts
27-Sep-17 08:15 34.965197 -118.918855 162 6049ft 276kts
27-Sep-17 08:16 34.892135 -118.892900 162 6065ft 276kts
27-Sep-17 08:17 34.818730 -118.867164 160 6076ft 275kts
27-Sep-17 08:18 34.748180 -118.835094 156 6100ft 273kts
27-Sep-17 08:19 34.679974 -118.802786 156 6932ft 275kts
27-Sep-17 08:20 34.608433 -118.768174 155 10617ft 296kts
27-Sep-17 08:21 34.517991 -118.723699 155 13569ft 383kts
27-Sep-17 08:22 34.416406 -118.674783 154 17998ft 413kts
27-Sep-17 08:23 34.311929 -118.624885 154 18930ft 409kts
27-Sep-17 08:24 34.198836 -118.568896 154 19014ft 451kts
27-Sep-17 08:25 34.083754 -118.511519 154 19011ft 449kts
27-Sep-17 08:26 33.968637 -118.453470 153 19011ft 449kts
27-Sep-17 08:27 33.877116 -118.368723 132 18785ft 436kts
27-Sep-17 08:28 33.802936 -118.277742 130 15477ft 424kts
27-Sep-17 08:29 33.726939 -118.177093 129 14912ft 384kts
27-Sep-17 08:30 33.658407 -118.087728 130 14975ft 371kts
27-Sep-17 08:31 33.589424 -117.999132 130 14965ft 364kts
27-Sep-17 08:32 33.519912 -117.910162 130 14950ft 362kts
27-Sep-17 08:33 33.451827 -117.821347 129 14951ft 364kts
27-Sep-17 08:34 33.381160 -117.733863 131 14961ft 366kts
27-Sep-17 08:35 33.303913 -117.662877 159 14429ft 369kts
27-Sep-17 08:36 33.209430 -117.623511 156 12255ft 355kts
27-Sep-17 08:37 33.122606 -117.579711 153 10374ft 337kts
27-Sep-17 08:38 33.042473 -117.535095 153 9075ft 310kts
27-Sep-17 08:39 32.969387 -117.493821 153 7538ft 287kts
27-Sep-17 08:40 32.899847 -117.455014 154 5959ft 261kts
27-Sep-17 08:41 32.840100 -117.422513 154 4281ft 217kts
27-Sep-17 08:42 32.800734 -117.389000 131 2883ft 181kts
27-Sep-17 08:43 32.773698 -117.352105 127 2044ft 155kts
27-Sep-17 08:44 32.762331 -117.309253 107 1903ft 142kts
27-Sep-17 08:45 32.752584 -117.268621 106 1848ft 148kts
27-Sep-17 08:46 32.743143 -117.229583 107 373ft 157kts
27-Sep-17 08:47 32.736192 -117.204681 252 10ft 12kts

Navigation Log

Ident Type
Flight plan parsing failed, navigation log unavailable